sensor_id;sensor_type;location;lat;lon;timestamp;temperature;humidity
21712;DHT22;11017;53.552;9.910;2023-08-07T00:00:53;17.00;99.90
21712;DHT22;11017;53.552;9.910;2023-08-07T00:03:20;16.90;99.90
21712;DHT22;11017;53.552;9.910;2023-08-07T00:05:47;16.80;99.90
21712;DHT22;11017;53.552;9.910;2023-08-07T00:08:15;16.80;99.90
21712;DHT22;11017;53.552;9.910;2023-08-07T00:10:42;16.70;99.90
21712;DHT22;11017;53.552;9.910;2023-08-07T00:13:09;16.80;99.90
21712;DHT22;11017;53.552;9.910;2023-08-07T00:15:37;16.80;99.90
21712;DHT22;11017;53.552;9.910;2023-08-07T00:18:04;16.70;99.90
21712;DHT22;11017;53.552;9.910;2023-08-07T00:20:31;16.70;99.90
21712;DHT22;11017;53.552;9.910;2023-08-07T00:22:58;16.60;99.90
21712;DHT22;11017;53.552;9.910;2023-08-07T00:25:26;16.70;99.90
21712;DHT22;11017;53.552;9.910;2023-08-07T00:27:54;16.60;99.90
21712;DHT22;11017;53.552;9.910;2023-08-07T00:30:20;16.60;99.90
21712;DHT22;11017;53.552;9.910;2023-08-07T00:32:47;16.50;99.90
21712;DHT22;11017;53.552;9.910;2023-08-07T00:35:14;16.50;99.90
21712;DHT22;11017;53.552;9.910;2023-08-07T00:37:41;16.50;99.90
21712;DHT22;11017;53.552;9.910;2023-08-07T00:40:09;16.40;99.90
21712;DHT22;11017;53.552;9.910;2023-08-07T00:42:37;16.30;99.90
21712;DHT22;11017;53.552;9.910;2023-08-07T00:45:05;16.40;99.90
21712;DHT22;11017;53.552;9.910;2023-08-07T00:47:32;16.60;99.90
21712;DHT22;11017;53.552;9.910;2023-08-07T00:49:59;16.60;99.90
21712;DHT22;11017;53.552;9.910;2023-08-07T00:52:26;16.50;99.90
21712;DHT22;11017;53.552;9.910;2023-08-07T00:54:53;16.50;99.90
21712;DHT22;11017;53.552;9.910;2023-08-07T00:57:20;16.50;99.90
21712;DHT22;11017;53.552;9.910;2023-08-07T00:59:50;16.40;99.90
21712;DHT22;11017;53.552;9.910;2023-08-07T01:02:17;16.40;99.90
21712;DHT22;11017;53.552;9.910;2023-08-07T01:04:45;16.40;99.90
21712;DHT22;11017;53.552;9.910;2023-08-07T01:07:13;16.30;99.90
21712;DHT22;11017;53.552;9.910;2023-08-07T01:09:40;16.40;99.90
21712;DHT22;11017;53.552;9.910;2023-08-07T01:12:13;16.40;99.90
21712;DHT22;11017;53.552;9.910;2023-08-07T01:14:49;16.50;99.90
21712;DHT22;11017;53.552;9.910;2023-08-07T01:17:20;16.50;99.90
21712;DHT22;11017;53.552;9.910;2023-08-07T01:19:47;16.50;99.90
21712;DHT22;11017;53.552;9.910;2023-08-07T01:22:18;16.40;99.90
21712;DHT22;11017;53.552;9.910;2023-08-07T01:24:46;16.40;99.90
21712;DHT22;11017;53.552;9.910;2023-08-07T01:27:24;16.30;99.90
21712;DHT22;11017;53.552;9.910;2023-08-07T01:29:56;16.40;99.90
21712;DHT22;11017;53.552;9.910;2023-08-07T01:32:27;16.40;99.90
21712;DHT22;11017;53.552;9.910;2023-08-07T01:34:56;16.40;99.90
21712;DHT22;11017;53.552;9.910;2023-08-07T01:37:27;16.40;99.90
21712;DHT22;11017;53.552;9.910;2023-08-07T01:39:57;16.40;99.90
21712;DHT22;11017;53.552;9.910;2023-08-07T01:42:25;16.40;99.90
21712;DHT22;11017;53.552;9.910;2023-08-07T01:44:52;16.30;99.90
21712;DHT22;11017;53.552;9.910;2023-08-07T01:47:19;16.30;99.90
21712;DHT22;11017;53.552;9.910;2023-08-07T01:49:46;16.30;99.90
21712;DHT22;11017;53.552;9.910;2023-08-07T01:52:13;16.30;99.90
21712;DHT22;11017;53.552;9.910;2023-08-07T01:54:41;16.30;99.90
21712;DHT22;11017;53.552;9.910;2023-08-07T01:57:08;16.30;99.90
21712;DHT22;11017;53.552;9.910;2023-08-07T01:59:35;16.30;99.90
21712;DHT22;11017;53.552;9.910;2023-08-07T02:02:02;16.30;99.90
21712;DHT22;11017;53.552;9.910;2023-08-07T02:04:28;16.30;99.90
21712;DHT22;11017;53.552;9.910;2023-08-07T02:06:55;16.20;99.90
21712;DHT22;11017;53.552;9.910;2023-08-07T02:09:22;16.10;99.90
21712;DHT22;11017;53.552;9.910;2023-08-07T02:11:51;16.20;99.90
21712;DHT22;11017;53.552;9.910;2023-08-07T02:14:17;16.20;99.90
21712;DHT22;11017;53.552;9.910;2023-08-07T02:16:44;16.20;99.90
21712;DHT22;11017;53.552;9.910;2023-08-07T02:19:11;16.10;99.90
21712;DHT22;11017;53.552;9.910;2023-08-07T02:21:38;16.10;99.90
21712;DHT22;11017;53.552;9.910;2023-08-07T02:24:05;16.10;99.90
21712;DHT22;11017;53.552;9.910;2023-08-07T02:26:32;16.20;99.90
21712;DHT22;11017;53.552;9.910;2023-08-07T02:29:00;16.10;99.90
21712;DHT22;11017;53.552;9.910;2023-08-07T02:31:28;16.20;99.90
21712;DHT22;11017;53.552;9.910;2023-08-07T02:33:55;16.10;99.90
21712;DHT22;11017;53.552;9.910;2023-08-07T02:36:22;16.10;99.90
21712;DHT22;11017;53.552;9.910;2023-08-07T02:38:49;16.10;99.90
21712;DHT22;11017;53.552;9.910;2023-08-07T02:41:15;16.10;99.90
21712;DHT22;11017;53.552;9.910;2023-08-07T02:43:42;16.10;99.90
21712;DHT22;11017;53.552;9.910;2023-08-07T02:46:11;16.00;99.90
21712;DHT22;11017;53.552;9.910;2023-08-07T02:48:37;15.90;99.90
21712;DHT22;11017;53.552;9.910;2023-08-07T02:51:05;16.00;99.90
21712;DHT22;11017;53.552;9.910;2023-08-07T02:53:32;16.10;99.90
21712;DHT22;11017;53.552;9.910;2023-08-07T02:55:59;16.10;99.90
21712;DHT22;11017;53.552;9.910;2023-08-07T02:58:26;16.10;99.90
21712;DHT22;11017;53.552;9.910;2023-08-07T03:00:52;16.10;99.90
21712;DHT22;11017;53.552;9.910;2023-08-07T03:03:21;16.00;99.90
21712;DHT22;11017;53.552;9.910;2023-08-07T03:05:48;16.10;99.90
21712;DHT22;11017;53.552;9.910;2023-08-07T03:08:16;16.10;99.90
21712;DHT22;11017;53.552;9.910;2023-08-07T03:10:50;16.00;99.90
21712;DHT22;11017;53.552;9.910;2023-08-07T03:13:17;16.10;99.90
21712;DHT22;11017;53.552;9.910;2023-08-07T03:15:44;16.10;99.90
21712;DHT22;11017;53.552;9.910;2023-08-07T03:18:11;16.00;99.90
21712;DHT22;11017;53.552;9.910;2023-08-07T03:20:39;16.00;99.90
21712;DHT22;11017;53.552;9.910;2023-08-07T03:23:06;16.00;99.90
21712;DHT22;11017;53.552;9.910;2023-08-07T03:25:33;16.10;99.90
21712;DHT22;11017;53.552;9.910;2023-08-07T03:27:59;16.10;99.90
21712;DHT22;11017;53.552;9.910;2023-08-07T03:30:26;16.10;99.90
21712;DHT22;11017;53.552;9.910;2023-08-07T03:32:53;16.10;99.90
21712;DHT22;11017;53.552;9.910;2023-08-07T03:35:20;16.10;99.90
21712;DHT22;11017;53.552;9.910;2023-08-07T03:37:48;16.00;99.90
21712;DHT22;11017;53.552;9.910;2023-08-07T03:40:15;16.00;99.90
21712;DHT22;11017;53.552;9.910;2023-08-07T03:42:42;16.00;99.90
21712;DHT22;11017;53.552;9.910;2023-08-07T03:45:09;16.10;99.90
21712;DHT22;11017;53.552;9.910;2023-08-07T03:47:36;16.10;99.90
21712;DHT22;11017;53.552;9.910;2023-08-07T03:50:04;16.10;99.90
21712;DHT22;11017;53.552;9.910;2023-08-07T03:52:31;16.10;99.90
21712;DHT22;11017;53.552;9.910;2023-08-07T03:54:59;16.00;99.90
21712;DHT22;11017;53.552;9.910;2023-08-07T03:57:26;16.10;99.90
21712;DHT22;11017;53.552;9.910;2023-08-07T03:59:53;16.10;99.90
21712;DHT22;11017;53.552;9.910;2023-08-07T04:02:20;16.10;99.90
21712;DHT22;11017;53.552;9.910;2023-08-07T04:04:47;16.20;99.90
21712;DHT22;11017;53.552;9.910;2023-08-07T04:07:14;16.20;99.90
21712;DHT22;11017;53.552;9.910;2023-08-07T04:09:41;16.20;99.90
21712;DHT22;11017;53.552;9.910;2023-08-07T04:12:09;16.20;99.90
21712;DHT22;11017;53.552;9.910;2023-08-07T04:14:36;16.10;99.90
21712;DHT22;11017;53.552;9.910;2023-08-07T04:17:04;16.20;99.90
21712;DHT22;11017;53.552;9.910;2023-08-07T04:19:31;16.10;99.90
21712;DHT22;11017;53.552;9.910;2023-08-07T04:21:58;16.20;99.90
21712;DHT22;11017;53.552;9.910;2023-08-07T04:24:25;16.10;99.90
21712;DHT22;11017;53.552;9.910;2023-08-07T04:26:51;16.10;99.90
21712;DHT22;11017;53.552;9.910;2023-08-07T04:29:20;16.20;99.90
21712;DHT22;11017;53.552;9.910;2023-08-07T04:31:47;16.20;99.90
21712;DHT22;11017;53.552;9.910;2023-08-07T04:34:14;16.20;99.90
21712;DHT22;11017;53.552;9.910;2023-08-07T04:36:41;16.30;99.90
21712;DHT22;11017;53.552;9.910;2023-08-07T04:39:07;16.30;99.90
21712;DHT22;11017;53.552;9.910;2023-08-07T04:41:34;16.30;99.90
21712;DHT22;11017;53.552;9.910;2023-08-07T04:44:01;16.30;99.90
21712;DHT22;11017;53.552;9.910;2023-08-07T04:46:30;16.30;99.90
21712;DHT22;11017;53.552;9.910;2023-08-07T04:48:58;16.30;99.90
21712;DHT22;11017;53.552;9.910;2023-08-07T04:51:26;16.30;99.90
21712;DHT22;11017;53.552;9.910;2023-08-07T04:53:54;16.40;99.90
21712;DHT22;11017;53.552;9.910;2023-08-07T04:56:22;16.30;99.90
21712;DHT22;11017;53.552;9.910;2023-08-07T04:58:49;16.40;99.90
21712;DHT22;11017;53.552;9.910;2023-08-07T05:01:16;16.40;99.90
21712;DHT22;11017;53.552;9.910;2023-08-07T05:03:44;16.50;99.90
21712;DHT22;11017;53.552;9.910;2023-08-07T05:06:11;16.40;99.90
21712;DHT22;11017;53.552;9.910;2023-08-07T05:08:38;16.40;99.90
21712;DHT22;11017;53.552;9.910;2023-08-07T05:11:04;16.50;99.90
21712;DHT22;11017;53.552;9.910;2023-08-07T05:13:32;16.60;99.90
21712;DHT22;11017;53.552;9.910;2023-08-07T05:15:58;16.50;99.90
21712;DHT22;11017;53.552;9.910;2023-08-07T05:18:25;16.60;99.90
21712;DHT22;11017;53.552;9.910;2023-08-07T05:20:53;16.50;99.90
21712;DHT22;11017;53.552;9.910;2023-08-07T05:23:20;16.60;99.90
21712;DHT22;11017;53.552;9.910;2023-08-07T05:25:47;16.60;99.90
21712;DHT22;11017;53.552;9.910;2023-08-07T05:28:14;16.70;99.90
21712;DHT22;11017;53.552;9.910;2023-08-07T05:30:41;16.80;99.90
21712;DHT22;11017;53.552;9.910;2023-08-07T05:33:08;16.80;99.90
21712;DHT22;11017;53.552;9.910;2023-08-07T05:35:34;16.80;99.90
21712;DHT22;11017;53.552;9.910;2023-08-07T05:38:03;16.80;99.90
21712;DHT22;11017;53.552;9.910;2023-08-07T05:40:29;16.80;99.90
21712;DHT22;11017;53.552;9.910;2023-08-07T05:42:56;16.80;99.90
21712;DHT22;11017;53.552;9.910;2023-08-07T05:45:23;16.70;99.90
21712;DHT22;11017;53.552;9.910;2023-08-07T05:47:50;16.90;99.90
21712;DHT22;11017;53.552;9.910;2023-08-07T05:50:17;17.00;99.90
21712;DHT22;11017;53.552;9.910;2023-08-07T05:52:44;17.00;99.90
21712;DHT22;11017;53.552;9.910;2023-08-07T05:55:12;17.00;99.90
21712;DHT22;11017;53.552;9.910;2023-08-07T05:57:39;17.00;99.90
21712;DHT22;11017;53.552;9.910;2023-08-07T06:00:07;17.10;99.90
21712;DHT22;11017;53.552;9.910;2023-08-07T06:02:39;17.20;99.90
21712;DHT22;11017;53.552;9.910;2023-08-07T06:05:06;17.30;99.90
21712;DHT22;11017;53.552;9.910;2023-08-07T06:07:33;17.30;99.90
21712;DHT22;11017;53.552;9.910;2023-08-07T06:10:00;17.30;99.90
21712;DHT22;11017;53.552;9.910;2023-08-07T06:12:29;17.50;99.90
21712;DHT22;11017;53.552;9.910;2023-08-07T06:14:56;17.70;99.90
21712;DHT22;11017;53.552;9.910;2023-08-07T06:17:23;17.80;99.90
21712;DHT22;11017;53.552;9.910;2023-08-07T06:19:49;17.70;99.90
21712;DHT22;11017;53.552;9.910;2023-08-07T06:22:16;17.50;99.90
21712;DHT22;11017;53.552;9.910;2023-08-07T06:24:43;17.40;99.90
21712;DHT22;11017;53.552;9.910;2023-08-07T06:27:10;17.50;99.90
21712;DHT22;11017;53.552;9.910;2023-08-07T06:29:38;17.50;99.90
21712;DHT22;11017;53.552;9.910;2023-08-07T06:32:06;17.60;99.90
21712;DHT22;11017;53.552;9.910;2023-08-07T06:34:35;17.70;99.90
21712;DHT22;11017;53.552;9.910;2023-08-07T06:37:04;17.60;99.90
21712;DHT22;11017;53.552;9.910;2023-08-07T06:39:31;17.60;99.90
21712;DHT22;11017;53.552;9.910;2023-08-07T06:41:57;17.70;99.90
21712;DHT22;11017;53.552;9.910;2023-08-07T06:44:25;17.80;99.90
21712;DHT22;11017;53.552;9.910;2023-08-07T06:46:53;17.90;99.90
21712;DHT22;11017;53.552;9.910;2023-08-07T06:49:21;17.90;99.90
21712;DHT22;11017;53.552;9.910;2023-08-07T06:51:47;17.90;99.90
21712;DHT22;11017;53.552;9.910;2023-08-07T06:54:14;17.60;99.90
21712;DHT22;11017;53.552;9.910;2023-08-07T06:56:41;17.70;99.90
21712;DHT22;11017;53.552;9.910;2023-08-07T06:59:09;17.50;99.90
21712;DHT22;11017;53.552;9.910;2023-08-07T07:01:36;17.60;99.90
21712;DHT22;11017;53.552;9.910;2023-08-07T07:04:04;17.70;99.90
21712;DHT22;11017;53.552;9.910;2023-08-07T07:06:31;17.70;99.90
21712;DHT22;11017;53.552;9.910;2023-08-07T07:08:58;17.80;99.90
21712;DHT22;11017;53.552;9.910;2023-08-07T07:11:25;17.80;99.90
21712;DHT22;11017;53.552;9.910;2023-08-07T07:13:52;17.40;99.90
21712;DHT22;11017;53.552;9.910;2023-08-07T07:16:19;17.00;99.90
21712;DHT22;11017;53.552;9.910;2023-08-07T07:18:46;16.90;99.90
21712;DHT22;11017;53.552;9.910;2023-08-07T07:21:15;17.10;99.90
21712;DHT22;11017;53.552;9.910;2023-08-07T07:23:42;17.30;99.90
21712;DHT22;11017;53.552;9.910;2023-08-07T07:26:08;17.40;99.90
21712;DHT22;11017;53.552;9.910;2023-08-07T07:28:35;17.30;99.90
21712;DHT22;11017;53.552;9.910;2023-08-07T07:31:02;17.40;99.90
21712;DHT22;11017;53.552;9.910;2023-08-07T07:33:30;17.40;99.90
21712;DHT22;11017;53.552;9.910;2023-08-07T07:35:57;17.20;99.90
21712;DHT22;11017;53.552;9.910;2023-08-07T07:38:25;17.30;99.90
21712;DHT22;11017;53.552;9.910;2023-08-07T07:40:53;17.50;99.90
21712;DHT22;11017;53.552;9.910;2023-08-07T07:43:22;17.60;99.90
21712;DHT22;11017;53.552;9.910;2023-08-07T07:45:49;17.80;99.90
21712;DHT22;11017;53.552;9.910;2023-08-07T07:48:15;17.90;99.90
21712;DHT22;11017;53.552;9.910;2023-08-07T07:50:42;18.10;99.90
21712;DHT22;11017;53.552;9.910;2023-08-07T07:53:09;18.40;99.90
21712;DHT22;11017;53.552;9.910;2023-08-07T07:55:37;18.90;99.90
21712;DHT22;11017;53.552;9.910;2023-08-07T07:58:04;18.80;99.90
21712;DHT22;11017;53.552;9.910;2023-08-07T08:00:31;19.00;99.90
21712;DHT22;11017;53.552;9.910;2023-08-07T08:02:58;18.80;99.90
21712;DHT22;11017;53.552;9.910;2023-08-07T08:05:26;18.70;99.90
21712;DHT22;11017;53.552;9.910;2023-08-07T08:07:52;18.40;99.90
21712;DHT22;11017;53.552;9.910;2023-08-07T08:10:19;18.10;99.90
21712;DHT22;11017;53.552;9.910;2023-08-07T08:12:48;17.90;99.90
21712;DHT22;11017;53.552;9.910;2023-08-07T08:15:14;17.50;99.90
21712;DHT22;11017;53.552;9.910;2023-08-07T08:17:41;16.90;99.90
21712;DHT22;11017;53.552;9.910;2023-08-07T08:20:09;16.60;99.90
21712;DHT22;11017;53.552;9.910;2023-08-07T08:22:36;16.90;99.90
21712;DHT22;11017;53.552;9.910;2023-08-07T08:25:03;16.90;99.90
21712;DHT22;11017;53.552;9.910;2023-08-07T08:27:32;17.00;99.90
21712;DHT22;11017;53.552;9.910;2023-08-07T08:30:00;17.30;99.90
21712;DHT22;11017;53.552;9.910;2023-08-07T08:32:27;17.30;99.90
21712;DHT22;11017;53.552;9.910;2023-08-07T08:34:54;17.10;99.90
21712;DHT22;11017;53.552;9.910;2023-08-07T08:37:21;17.10;99.90
21712;DHT22;11017;53.552;9.910;2023-08-07T08:39:48;17.40;99.90
21712;DHT22;11017;53.552;9.910;2023-08-07T08:42:15;17.50;99.90
21712;DHT22;11017;53.552;9.910;2023-08-07T08:44:45;18.10;99.90
21712;DHT22;11017;53.552;9.910;2023-08-07T08:47:14;18.30;99.90
21712;DHT22;11017;53.552;9.910;2023-08-07T08:49:46;18.80;99.90
21712;DHT22;11017;53.552;9.910;2023-08-07T08:52:14;19.30;99.90
21712;DHT22;11017;53.552;9.910;2023-08-07T08:54:42;19.10;99.90
21712;DHT22;11017;53.552;9.910;2023-08-07T08:57:11;19.00;99.90
21712;DHT22;11017;53.552;9.910;2023-08-07T08:59:40;18.60;99.90
21712;DHT22;11017;53.552;9.910;2023-08-07T09:02:08;18.40;99.90
21712;DHT22;11017;53.552;9.910;2023-08-07T09:04:37;18.50;99.90
21712;DHT22;11017;53.552;9.910;2023-08-07T09:07:04;18.80;99.90
21712;DHT22;11017;53.552;9.910;2023-08-07T09:14:29;19.00;99.90
21712;DHT22;11017;53.552;9.910;2023-08-07T09:16:59;20.50;99.90
21712;DHT22;11017;53.552;9.910;2023-08-07T09:19:26;19.70;99.90
21712;DHT22;11017;53.552;9.910;2023-08-07T09:24:22;20.00;99.90
21712;DHT22;11017;53.552;9.910;2023-08-07T09:26:51;21.00;99.90
21712;DHT22;11017;53.552;9.910;2023-08-07T09:29:20;21.10;99.90
21712;DHT22;11017;53.552;9.910;2023-08-07T09:31:47;20.60;99.90
21712;DHT22;11017;53.552;9.910;2023-08-07T09:34:14;20.40;99.90
21712;DHT22;11017;53.552;9.910;2023-08-07T09:36:46;20.00;99.90
21712;DHT22;11017;53.552;9.910;2023-08-07T09:39:14;19.90;99.90
21712;DHT22;11017;53.552;9.910;2023-08-07T09:41:41;20.50;99.90
21712;DHT22;11017;53.552;9.910;2023-08-07T09:44:09;20.90;99.90
21712;DHT22;11017;53.552;9.910;2023-08-07T10:04:00;21.10;99.90
21712;DHT22;11017;53.552;9.910;2023-08-07T10:13:52;22.00;99.90
21712;DHT22;11017;53.552;9.910;2023-08-07T10:16:19;24.40;99.90
21712;DHT22;11017;53.552;9.910;2023-08-07T10:18:46;24.50;99.90
21712;DHT22;11017;53.552;9.910;2023-08-07T10:21:14;24.70;99.90
21712;DHT22;11017;53.552;9.910;2023-08-07T10:23:41;24.40;99.90
21712;DHT22;11017;53.552;9.910;2023-08-07T10:36:08;23.90;99.90
21712;DHT22;11017;53.552;9.910;2023-08-07T10:38:36;19.90;99.90
21712;DHT22;11017;53.552;9.910;2023-08-07T11:01:19;19.50;99.90
21712;DHT22;11017;53.552;9.910;2023-08-07T11:03:49;21.90;99.90
21712;DHT22;11017;53.552;9.910;2023-08-07T11:06:16;22.30;99.90
21712;DHT22;11017;53.552;9.910;2023-08-07T11:08:43;23.00;99.90
21712;DHT22;11017;53.552;9.910;2023-08-07T11:11:10;23.20;99.90
21712;DHT22;11017;53.552;9.910;2023-08-07T11:13:37;23.90;99.90
21712;DHT22;11017;53.552;9.910;2023-08-07T11:18:31;23.50;99.90
21712;DHT22;11017;53.552;9.910;2023-08-07T11:21:02;20.20;99.90
21712;DHT22;11017;53.552;9.910;2023-08-07T11:38:28;18.90;99.90
21712;DHT22;11017;53.552;9.910;2023-08-07T11:55:51;19.80;99.90
21712;DHT22;11017;53.552;9.910;2023-08-07T12:00:46;19.10;99.90
21712;DHT22;11017;53.552;9.910;2023-08-07T12:03:27;18.40;99.90
21712;DHT22;11017;53.552;9.910;2023-08-07T12:05:56;19.00;99.90
21712;DHT22;11017;53.552;9.910;2023-08-07T12:08:23;19.70;99.90
21712;DHT22;11017;53.552;9.910;2023-08-07T12:10:53;19.50;99.90
21712;DHT22;11017;53.552;9.910;2023-08-07T12:13:23;19.00;99.90
21712;DHT22;11017;53.552;9.910;2023-08-07T12:15:53;18.70;99.90
21712;DHT22;11017;53.552;9.910;2023-08-07T12:18:20;18.60;99.90
21712;DHT22;11017;53.552;9.910;2023-08-07T12:20:49;17.90;99.90
21712;DHT22;11017;53.552;9.910;2023-08-07T12:23:17;17.60;99.90
21712;DHT22;11017;53.552;9.910;2023-08-07T12:25:44;17.80;99.90
21712;DHT22;11017;53.552;9.910;2023-08-07T12:28:12;18.60;99.90
21712;DHT22;11017;53.552;9.910;2023-08-07T12:30:40;18.80;99.90
21712;DHT22;11017;53.552;9.910;2023-08-07T12:33:07;19.10;99.90
21712;DHT22;11017;53.552;9.910;2023-08-07T13:07:35;19.60;99.90
21712;DHT22;11017;53.552;9.910;2023-08-07T13:10:05;18.10;99.90
21712;DHT22;11017;53.552;9.910;2023-08-07T13:12:35;19.20;99.90
21712;DHT22;11017;53.552;9.910;2023-08-07T13:15:03;20.00;99.90
21712;DHT22;11017;53.552;9.910;2023-08-07T13:19:59;20.90;99.90
21712;DHT22;11017;53.552;9.910;2023-08-07T13:22:26;21.40;99.90
21712;DHT22;11017;53.552;9.910;2023-08-07T13:24:54;21.10;99.90
21712;DHT22;11017;53.552;9.910;2023-08-07T13:32:15;20.50;99.90
21712;DHT22;11017;53.552;9.910;2023-08-07T13:34:44;20.70;99.90
21712;DHT22;11017;53.552;9.910;2023-08-07T13:37:13;20.40;99.90
21712;DHT22;11017;53.552;9.910;2023-08-07T13:59:20;19.90;99.90
21712;DHT22;11017;53.552;9.910;2023-08-07T14:04:15;19.40;99.90
21712;DHT22;11017;53.552;9.910;2023-08-07T14:06:42;19.40;99.90
21712;DHT22;11017;53.552;9.910;2023-08-07T14:16:33;19.80;99.90
21712;DHT22;11017;53.552;9.910;2023-08-07T14:18:59;19.70;99.90
21712;DHT22;11017;53.552;9.910;2023-08-07T14:21:26;18.90;99.90
21712;DHT22;11017;53.552;9.910;2023-08-07T14:23:53;18.70;99.90
21712;DHT22;11017;53.552;9.910;2023-08-07T14:26:20;18.30;99.90
21712;DHT22;11017;53.552;9.910;2023-08-07T14:28:49;18.10;99.90
21712;DHT22;11017;53.552;9.910;2023-08-07T14:31:15;17.90;99.90
21712;DHT22;11017;53.552;9.910;2023-08-07T14:33:42;17.90;99.90
21712;DHT22;11017;53.552;9.910;2023-08-07T14:36:09;18.00;99.90
21712;DHT22;11017;53.552;9.910;2023-08-07T14:38:36;18.40;99.90
21712;DHT22;11017;53.552;9.910;2023-08-07T14:41:03;18.60;99.90
21712;DHT22;11017;53.552;9.910;2023-08-07T14:43:30;19.10;99.90
21712;DHT22;11017;53.552;9.910;2023-08-07T14:45:58;20.00;99.90
21712;DHT22;11017;53.552;9.910;2023-08-07T14:48:25;20.60;99.90
21712;DHT22;11017;53.552;9.910;2023-08-07T14:50:52;20.60;99.90
21712;DHT22;11017;53.552;9.910;2023-08-07T14:53:21;20.80;99.90
21712;DHT22;11017;53.552;9.910;2023-08-07T15:42:30;19.70;99.90
21712;DHT22;11017;53.552;9.910;2023-08-07T16:12:00;17.60;99.90
21712;DHT22;11017;53.552;9.910;2023-08-07T16:14:27;16.60;99.90
21712;DHT22;11017;53.552;9.910;2023-08-07T16:16:53;17.00;99.90
21712;DHT22;11017;53.552;9.910;2023-08-07T16:19:20;17.50;99.90
21712;DHT22;11017;53.552;9.910;2023-08-07T16:21:48;18.10;99.90
21712;DHT22;11017;53.552;9.910;2023-08-07T16:24:15;18.70;99.90
21712;DHT22;11017;53.552;9.910;2023-08-07T16:26:42;19.40;99.90
21712;DHT22;11017;53.552;9.910;2023-08-07T16:29:11;20.30;99.90
21712;DHT22;11017;53.552;9.910;2023-08-07T16:31:38;20.80;99.90
21712;DHT22;11017;53.552;9.910;2023-08-07T16:34:05;20.80;99.90
21712;DHT22;11017;53.552;9.910;2023-08-07T16:39:00;21.80;99.90
21712;DHT22;11017;53.552;9.910;2023-08-07T16:43:54;21.90;99.90
21712;DHT22;11017;53.552;9.910;2023-08-07T16:46:22;20.30;99.90
21712;DHT22;11017;53.552;9.910;2023-08-07T16:48:49;19.90;99.90
21712;DHT22;11017;53.552;9.910;2023-08-07T16:51:16;19.10;99.90
21712;DHT22;11017;53.552;9.910;2023-08-07T16:53:44;19.00;99.90
21712;DHT22;11017;53.552;9.910;2023-08-07T16:56:12;18.80;99.90
21712;DHT22;11017;53.552;9.910;2023-08-07T16:58:39;18.70;99.90
21712;DHT22;11017;53.552;9.910;2023-08-07T17:01:06;18.60;99.90
21712;DHT22;11017;53.552;9.910;2023-08-07T17:03:35;18.30;99.90
21712;DHT22;11017;53.552;9.910;2023-08-07T20:33:02;17.60;99.90
21712;DHT22;11017;53.552;9.910;2023-08-07T20:47:46;14.70;99.90
21712;DHT22;11017;53.552;9.910;2023-08-07T20:50:13;14.60;99.90
21712;DHT22;11017;53.552;9.910;2023-08-07T20:52:40;14.60;99.90
21712;DHT22;11017;53.552;9.910;2023-08-07T20:55:08;14.60;99.90
21712;DHT22;11017;53.552;9.910;2023-08-07T20:57:34;14.80;99.90
